Terminal Aerodrome Forecast
Issued by NWS

Home | Current Version | Previous Version | Text Only | Print | Product List | Glossary On
Versions: 1 2 3 4 5 6 7 8 9 10 11 12 13 14 15 16 17 18 19 20 21 22 23 24 25 26 27 28 29 30 31 32 33 34 35 36
551
FTUS43 KDTX 171120
TAFYIP
TAF
KYIP 171120Z 1712/1812 11007KT 3/4SM -SHRA BR VV002
      TEMPO 1712/1714 1/2SM TSRA FG BKN002 OVC008CB
     FM171500 20008KT 2SM BR OVC006
     FM171700 22013G20KT 6SM BR OVC012
     FM172300 24010KT 5SM -DZ BR OVC008
     FM180400 25008KT 3SM -RA BR OVC006=

USA.gov is the U.S. government's official web portal to all federal, state and local government web resources and services.